Time;durP1;ratioP1;P1;durP2;ratioP2;P2;SDS_P1;SDS_P2;PMS_P1;PMS_P2;Temp;Humidity;BMP_temperature;BMP_pressure;BME280_temperature;BME280_humidity;BME280_pressure;Samples;Min_cycle;Max_cycle;Signal;HPM_P1;HPM_P2
2022/12/08 00:03:47;;;;;;;4.43;2.40;;;;;;;0.79;100.00;97758.88;15321582;19;20014;-82
2022/12/08 00:09:23;;;;;;;3.83;2.95;;;;;;;0.76;100.00;97744.06;15301914;19;20017;-83
2022/12/08 00:14:56;;;;;;;3.65;2.70;;;;;;;0.76;100.00;97733.47;15307165;19;20032;-82
2022/12/08 00:20:23;;;;;;;4.55;2.72;;;;;;;0.76;100.00;97724.69;15301762;19;20029;-82
2022/12/08 00:25:49;;;;;;;4.30;2.95;;;;;;;0.73;100.00;97725.72;15305548;19;20025;-84
2022/12/08 00:31:18;;;;;;;4.50;2.80;;;;;;;0.72;100.00;97721.38;15305714;19;20396;-82
2022/12/08 00:36:47;;;;;;;4.20;3.00;;;;;;;0.71;100.00;97713.56;15307175;19;20038;-82
2022/12/08 00:42:16;;;;;;;3.72;3.38;;;;;;;0.71;100.00;97702.97;15306644;19;20492;-82
2022/12/08 00:47:41;;;;;;;5.75;3.22;;;;;;;0.69;100.00;97710.19;15305673;19;20010;-84
2022/12/08 00:53:08;;;;;;;4.85;3.15;;;;;;;0.69;100.00;97707.53;15304518;19;20674;-83
2022/12/08 00:58:39;;;;;;;6.72;3.50;;;;;;;0.72;100.00;97704.66;15298738;19;20082;-82
2022/12/08 01:04:06;;;;;;;4.32;3.45;;;;;;;0.75;100.00;97694.66;15334548;19;20018;-83
2022/12/08 01:09:33;;;;;;;5.03;3.28;;;;;;;0.79;100.00;97700.56;15303374;19;20017;-82
2022/12/08 01:14:58;;;;;;;4.75;3.45;;;;;;;0.80;100.00;97699.59;15308538;19;20018;-82
2022/12/08 01:20:22;;;;;;;6.30;3.55;;;;;;;0.81;100.00;97701.28;15305470;19;20033;-82
2022/12/08 01:25:49;;;;;;;3.63;3.05;;;;;;;0.85;100.00;97689.50;15308746;19;20003;-82
2022/12/08 01:31:20;;;;;;;5.03;3.22;;;;;;;0.90;100.00;97697.09;15299738;19;20035;-82
2022/12/08 01:36:46;;;;;;;5.80;3.22;;;;;;;0.95;100.00;97696.72;15306728;19;20062;-82
2022/12/08 01:42:14;;;;;;;4.43;3.20;;;;;;;0.97;100.00;97694.81;15306664;19;20010;-82
2022/12/08 01:47:43;;;;;;;3.60;2.80;;;;;;;0.97;100.00;97686.84;15305948;19;20006;-82
2022/12/08 01:53:14;;;;;;;5.65;3.47;;;;;;;1.02;100.00;97676.72;15307732;19;20093;-83
2022/12/08 01:58:51;;;;;;;5.97;3.50;;;;;;;1.03;100.00;97676.63;15302391;19;20084;-83
2022/12/08 02:04:16;;;;;;;3.78;3.00;;;;;;;1.04;100.00;97678.31;15301095;19;20062;-83
2022/12/08 02:09:42;;;;;;;4.80;3.20;;;;;;;1.07;100.00;97678.03;15301470;19;20021;-83
2022/12/08 02:15:11;;;;;;;4.95;3.10;;;;;;;1.10;100.00;97676.13;15357137;19;20046;-83
2022/12/08 02:20:49;;;;;;;5.55;3.25;;;;;;;1.10;100.00;97671.69;15351685;19;20015;-83
2022/12/08 02:26:52;;;;;;;3.70;3.00;;;;;;;1.04;100.00;97657.09;15355221;19;20013;-83
2022/12/08 02:32:44;;;;;;;4.30;2.88;;;;;;;1.05;100.00;97647.31;15354939;19;20026;-83
2022/12/08 02:38:22;;;;;;;4.85;3.30;;;;;;;1.03;100.00;97646.56;15350929;19;20003;-84
2022/12/08 02:43:52;;;;;;;5.20;3.20;;;;;;;1.03;100.00;97654.53;15354435;19;20021;-82
2022/12/08 02:49:17;;;;;;;4.60;3.40;;;;;;;1.03;100.00;97646.56;15351406;19;20057;-83
2022/12/08 02:54:55;;;;;;;4.35;2.97;;;;;;;1.04;100.00;97640.31;15355688;19;20014;-83
2022/12/08 03:00:23;;;;;;;4.07;3.00;;;;;;;1.06;100.00;97627.78;15300708;19;20034;-82
2022/12/08 03:06:08;;;;;;;4.13;3.00;;;;;;;1.07;100.00;97634.78;15353531;19;20014;-83
2022/12/08 03:11:41;;;;;;;5.45;3.10;;;;;;;1.11;100.00;97633.56;15285683;19;20019;-82
2022/12/08 03:17:08;;;;;;;3.63;2.85;;;;;;;1.12;100.00;97621.16;15291719;19;20073;-82
2022/12/08 03:22:34;;;;;;;5.07;3.05;;;;;;;1.15;100.00;97618.25;15291393;19;20082;-82
2022/12/08 03:28:02;;;;;;;3.22;2.58;;;;;;;1.16;100.00;97607.50;15286658;19;20025;-82
2022/12/08 03:33:30;;;;;;;3.00;2.63;;;;;;;1.18;100.00;97613.53;15291755;19;20086;-82
2022/12/08 03:38:58;;;;;;;3.30;2.70;;;;;;;1.21;100.00;97617.75;15286919;19;20013;-82
2022/12/08 03:44:25;;;;;;;3.33;2.97;;;;;;;1.25;100.00;97610.38;15283716;19;20028;-82
2022/12/08 03:49:50;;;;;;;2.97;2.78;;;;;;;1.27;100.00;97597.84;15284371;19;20010;-82
2022/12/08 03:55:15;;;;;;;3.17;2.90;;;;;;;1.29;100.00;97596.78;15290882;19;20019;-81
2022/12/08 04:00:42;;;;;;;3.55;3.05;;;;;;;1.23;100.00;97614.00;15295382;19;20098;-82
2022/12/08 04:06:08;;;;;;;3.50;3.20;;;;;;;1.06;100.00;97611.88;15294255;19;20021;-80
2022/12/08 04:11:32;;;;;;;4.38;4.00;;;;;;;1.00;100.00;97612.38;15292264;19;20069;-83
2022/12/08 04:17:00;;;;;;;4.75;4.25;;;;;;;1.00;100.00;97607.06;15299343;19;20013;-82
2022/12/08 04:22:24;;;;;;;5.70;4.80;;;;;;;0.96;100.00;97598.47;15295032;19;20043;-81
2022/12/08 04:27:50;;;;;;;5.05;4.47;;;;;;;0.89;100.00;97606.06;15297540;19;20039;-82
2022/12/08 04:33:17;;;;;;;5.30;4.80;;;;;;;0.86;100.00;97605.47;15306494;19;20007;-81
2022/12/08 04:38:42;;;;;;;5.85;4.88;;;;;;;0.83;100.00;97609.22;15306474;19;20022;-81
2022/12/08 04:44:06;;;;;;;5.60;5.00;;;;;;;0.78;100.00;97614.03;15322031;19;20010;-80
2022/12/08 04:49:34;;;;;;;7.47;5.15;;;;;;;0.76;100.00;97615.97;15296101;19;20010;-82
2022/12/08 04:54:58;;;;;;;5.38;4.88;;;;;;;0.74;100.00;97608.13;15295456;19;20744;-82
2022/12/08 05:00:24;;;;;;;6.35;5.10;;;;;;;0.71;100.00;97607.53;15290128;19;20017;-81
2022/12/08 05:05:52;;;;;;;6.65;5.22;;;;;;;0.66;100.00;97609.66;15291930;19;20483;-81
2022/12/08 05:11:18;;;;;;;6.05;5.10;;;;;;;0.60;100.00;97601.25;15292282;19;20039;-82
2022/12/08 05:16:42;;;;;;;5.82;5.13;;;;;;;0.57;100.00;97601.47;15291162;19;20018;-82
2022/12/08 05:22:10;;;;;;;6.35;5.15;;;;;;;0.50;100.00;97597.63;15292962;19;20031;-82
2022/12/08 05:27:34;;;;;;;6.05;5.15;;;;;;;0.45;100.00;97597.97;15296834;19;20109;-81
2022/12/08 05:32:59;;;;;;;5.63;5.10;;;;;;;0.41;100.00;97593.03;15294999;19;20070;-81
2022/12/08 05:38:26;;;;;;;6.85;5.30;;;;;;;0.38;100.00;97585.31;15292952;19;20051;-82
2022/12/08 05:43:51;;;;;;;5.82;5.22;;;;;;;0.33;100.00;97598.91;15290530;19;20430;-83
2022/12/08 05:49:15;;;;;;;6.53;5.30;;;;;;;0.29;100.00;97598.28;15282757;19;20010;-83
2022/12/08 05:54:43;;;;;;;7.65;5.90;;;;;;;0.23;100.00;97593.47;15288939;19;20025;-81
2022/12/08 06:00:07;;;;;;;6.35;5.70;;;;;;;0.22;100.00;97590.94;15288544;19;20011;-82
2022/12/08 06:05:34;;;;;;;8.10;5.90;;;;;;;0.17;100.00;97596.59;15291398;19;20475;-83
2022/12/08 06:11:01;;;;;;;6.72;6.00;;;;;;;0.11;100.00;97599.69;15297273;19;20011;-81
2022/12/08 06:16:27;;;;;;;6.75;5.40;;;;;;;0.09;100.00;97598.97;15342880;19;20026;-82
2022/12/08 06:21:51;;;;;;;6.72;5.65;;;;;;;0.05;100.00;97598.34;15282385;19;20017;-83
2022/12/08 06:27:19;;;;;;;7.10;5.90;;;;;;;0.03;100.00;97596.78;15285093;19;20014;-82
2022/12/08 06:32:44;;;;;;;5.80;5.20;;;;;;;-0.01;100.00;97591.72;15286793;19;20017;-81
2022/12/08 06:38:09;;;;;;;7.50;6.10;;;;;;;-0.07;100.00;97592.19;15283112;19;20456;-81
2022/12/08 06:43:36;;;;;;;6.90;5.72;;;;;;;-0.14;100.00;97584.81;15284209;19;20025;-81
2022/12/08 06:49:01;;;;;;;7.25;5.93;;;;;;;-0.19;100.00;97593.09;15284902;19;20098;-82
2022/12/08 06:54:25;;;;;;;5.72;5.18;;;;;;;-0.21;100.00;97589.72;15283711;19;20133;-83
2022/12/08 06:59:53;;;;;;;5.50;5.00;;;;;;;-0.24;100.00;97600.53;15285233;19;20027;-80
2022/12/08 07:05:17;;;;;;;6.47;5.05;;;;;;;-0.19;100.00;97601.03;15290195;19;20031;-81
2022/12/08 07:10:43;;;;;;;5.95;4.75;;;;;;;-0.22;100.00;97599.44;15284265;19;20022;-79
2022/12/08 07:16:13;;;;;;;7.43;5.05;;;;;;;-0.22;100.00;97614.50;15289550;19;20594;-82
2022/12/08 07:21:38;;;;;;;6.07;5.30;;;;;;;-0.18;100.00;97621.28;15285253;19;20022;-80
2022/12/08 07:27:02;;;;;;;5.47;4.97;;;;;;;-0.14;100.00;97620.06;15283218;19;21384;-81
2022/12/08 07:32:31;;;;;;;4.80;4.28;;;;;;;-0.10;100.00;97618.88;15300073;19;20002;-81
2022/12/08 07:37:56;;;;;;;4.63;4.22;;;;;;;-0.10;100.00;97608.28;15298659;19;20034;-79
2022/12/08 07:43:21;;;;;;;5.70;5.20;;;;;;;-0.07;100.00;97616.03;15300126;19;20501;-79
2022/12/08 07:48:48;;;;;;;6.25;5.60;;;;;;;0.01;100.00;97614.59;15302318;19;20007;-80
2022/12/08 07:54:13;;;;;;;5.95;5.45;;;;;;;0.03;100.00;97608.22;15305115;19;20010;-79
2022/12/08 07:59:45;;;;;;;7.10;6.13;;;;;;;0.06;100.00;97623.03;15298956;19;20098;-79
2022/12/08 08:05:14;;;;;;;7.65;6.45;;;;;;;0.15;100.00;97619.69;15299879;19;20392;-80
2022/12/08 08:10:39;;;;;;;6.53;5.93;;;;;;;0.24;100.00;97619.00;15289582;19;20744;-80
2022/12/08 08:16:05;;;;;;;6.50;5.90;;;;;;;0.35;100.00;97617.34;15295493;19;20011;-81
2022/12/08 08:21:32;;;;;;;5.95;5.35;;;;;;;0.45;100.00;97607.72;15292472;19;20031;-80
2022/12/08 08:27:05;;;;;;;5.70;5.20;;;;;;;0.56;100.00;97599.78;15302080;19;20010;-81
2022/12/08 08:32:30;;;;;;;5.80;5.22;;;;;;;0.70;100.00;97608.47;15297283;19;20007;-81
2022/12/08 08:37:58;;;;;;;5.78;4.47;;;;;;;0.79;100.00;97605.09;15298247;19;20010;-80
2022/12/08 08:43:31;;;;;;;4.97;4.57;;;;;;;0.85;100.00;97588.72;15297809;19;20622;-81
2022/12/08 08:48:56;;;;;;;5.22;4.65;;;;;;;0.89;100.00;97579.56;15293515;19;20028;-80
2022/12/08 08:54:23;;;;;;;4.95;4.50;;;;;;;0.88;100.00;97583.16;15294364;19;20007;-80
2022/12/08 08:59:54;;;;;;;4.80;4.40;;;;;;;0.83;100.00;97574.75;15295626;19;20020;-81
2022/12/08 09:05:19;;;;;;;7.07;5.17;;;;;;;0.81;100.00;97571.38;15296566;19;20010;-81
2022/12/08 09:10:46;;;;;;;5.60;5.10;;;;;;;0.80;100.00;97574.97;15297191;19;20304;-81
2022/12/08 09:16:12;;;;;;;5.50;5.00;;;;;;;0.79;100.00;97567.97;15299288;19;20492;-81
2022/12/08 09:21:37;;;;;;;5.85;5.28;;;;;;;0.88;100.00;97572.56;15347549;19;20010;-81
2022/12/08 09:27:05;;;;;;;5.40;4.90;;;;;;;0.94;100.00;97568.59;15296678;19;20013;-81
2022/12/08 09:32:29;;;;;;;6.40;5.35;;;;;;;0.98;100.00;97571.84;15292723;19;20081;-81
2022/12/08 09:37:54;;;;;;;6.13;5.53;;;;;;;1.02;100.00;97567.97;15283875;19;20051;-81
2022/12/08 09:43:35;;;;;;;6.35;5.75;;;;;;;1.10;100.00;97570.00;15287697;19;20021;-81
2022/12/08 09:49:02;;;;;;;6.13;5.53;;;;;;;1.18;100.00;97559.63;15287271;19;20049;-80
2022/12/08 09:54:29;;;;;;;6.47;5.78;;;;;;;1.32;100.00;97548.75;15287441;19;20007;-80
2022/12/08 10:00:08;;;;;;;6.13;5.53;;;;;;;1.44;100.00;97546.91;15289736;19;20074;-81
2022/12/08 10:05:41;;;;;;;6.40;5.68;;;;;;;1.53;100.00;97530.22;15291606;19;20471;-80
2022/12/08 10:11:07;;;;;;;6.30;5.22;;;;;;;1.63;100.00;97518.84;15281373;19;20014;-81
2022/12/08 10:16:40;;;;;;;6.22;5.18;;;;;;;1.69;100.00;97507.72;15288476;19;20506;-81
2022/12/08 10:22:05;;;;;;;6.30;5.63;;;;;;;1.77;100.00;97505.28;15288448;19;20407;-80
2022/12/08 10:27:30;;;;;;;5.97;5.38;;;;;;;1.88;100.00;97511.50;15300093;19;20089;-79
2022/12/08 10:32:59;;;;;;;5.35;4.80;;;;;;;1.98;100.00;97492.00;15292310;19;20074;-79
2022/12/08 10:38:28;;;;;;;5.25;4.75;;;;;;;2.08;100.00;97485.91;15284371;19;20368;-80
2022/12/08 10:43:55;;;;;;;5.10;4.65;;;;;;;2.18;100.00;97464.69;15280986;19;20475;-79
2022/12/08 10:49:31;;;;;;;5.20;4.70;;;;;;;2.22;100.00;97456.34;15283340;19;20040;-81
2022/12/08 10:55:00;;;;;;;4.63;4.10;;;;;;;2.29;100.00;97448.69;15284827;19;20073;-81
2022/12/08 11:00:28;;;;;;;4.47;4.07;;;;;;;2.29;100.00;97440.69;15280461;19;20045;-81
2022/12/08 11:05:55;;;;;;;4.32;3.78;;;;;;;2.30;100.00;97439.69;15297721;19;20086;-81
2022/12/08 11:11:41;;;;;;;4.57;4.10;;;;;;;2.27;100.00;97432.84;15293067;19;20013;-81
2022/12/08 11:17:14;;;;;;;4.35;3.83;;;;;;;2.26;100.00;97433.81;15298995;19;20539;-82
2022/12/08 11:22:44;;;;;;;4.60;4.20;;;;;;;2.27;100.00;97427.53;15299178;19;20430;-80
2022/12/08 11:28:11;;;;;;;4.13;3.75;;;;;;;2.30;100.00;97418.44;15298110;19;20356;-81
2022/12/08 11:33:36;;;;;;;4.07;3.67;;;;;;;2.34;100.00;97411.88;15301768;19;20066;-82
2022/12/08 11:39:06;;;;;;;3.70;3.40;;;;;;;2.41;100.00;97407.72;15297397;19;20017;-81
2022/12/08 11:44:40;;;;;;;3.60;3.30;;;;;;;2.52;100.00;97408.59;15295702;19;20003;-81
2022/12/08 11:50:19;;;;;;;3.50;3.20;;;;;;;2.62;100.00;97406.81;15293629;19;20021;-83
2022/12/08 11:55:52;;;;;;;4.10;3.25;;;;;;;2.73;100.00;97398.72;15298359;19;20018;-81
2022/12/08 12:01:26;;;;;;;3.50;3.20;;;;;;;2.87;100.00;97391.31;15296454;19;20078;-83
2022/12/08 12:07:29;;;;;;;3.20;2.90;;;;;;;2.99;100.00;97387.56;15300374;19;20025;-84
2022/12/08 12:13:07;;;;;;;3.05;2.80;;;;;;;3.15;100.00;97388.81;15299013;19;20015;-82
2022/12/08 12:18:44;;;;;;;3.47;2.90;;;;;;;3.13;100.00;97385.44;15290096;19;20071;-81
2022/12/08 12:24:14;;;;;;;3.28;2.97;;;;;;;3.15;100.00;97379.00;15316264;19;20014;-80
2022/12/08 12:29:52;;;;;;;4.15;2.90;;;;;;;3.10;100.00;97375.91;15328108;19;20018;-81
2022/12/08 12:35:24;;;;;;;2.83;2.63;;;;;;;3.10;100.00;97375.09;15294518;19;20053;-80
2022/12/08 12:40:50;;;;;;;2.90;2.50;;;;;;;3.06;100.00;97378.03;15288184;19;20468;-79
2022/12/08 12:46:45;;;;;;;3.17;2.90;;;;;;;3.02;100.00;97371.28;15314965;19;20018;-80
2022/12/08 12:52:50;;;;;;;2.30;2.10;;;;;;;2.99;100.00;97363.59;15281051;19;20015;-81
2022/12/08 12:58:45;;;;;;;2.40;2.20;;;;;;;2.97;100.00;97360.25;15288286;19;20472;-82
2022/12/08 13:04:12;;;;;;;2.45;1.98;;;;;;;2.96;100.00;97350.56;15290975;19;20133;-81
2022/12/08 13:09:44;;;;;;;2.00;1.90;;;;;;;2.94;100.00;97352.53;15290590;19;20360;-79
2022/12/08 13:15:19;;;;;;;1.95;1.77;;;;;;;2.99;100.00;97358.28;15291805;19;20026;-81
2022/12/08 13:20:50;;;;;;;1.80;1.67;;;;;;;3.04;100.00;97356.03;15283632;19;20019;-80
2022/12/08 13:26:26;;;;;;;1.80;1.70;;;;;;;3.06;100.00;97354.06;15291723;19;20018;-81
2022/12/08 13:31:53;;;;;;;1.52;1.42;;;;;;;3.07;100.00;97344.25;15287521;19;20028;-83
2022/12/08 13:37:27;;;;;;;1.60;1.50;;;;;;;3.03;100.00;97358.84;15288831;19;20015;-80
2022/12/08 13:43:12;;;;;;;3.65;1.75;;;;;;;3.04;100.00;97356.03;15293238;19;20021;-80
2022/12/08 13:48:47;;;;;;;1.60;1.50;;;;;;;3.05;100.00;97363.03;15287965;19;20021;-81
2022/12/08 13:54:36;;;;;;;1.95;1.83;;;;;;;3.04;100.00;97357.88;15289339;19;20026;-79
2022/12/08 14:00:32;;;;;;;1.50;1.40;;;;;;;2.99;100.00;97352.97;15292655;19;20030;-81
2022/12/08 14:05:57;;;;;;;1.70;1.60;;;;;;;3.02;100.00;97352.66;15289519;19;20027;-81
2022/12/08 14:11:37;;;;;;;1.70;1.60;;;;;;;3.01;100.00;97352.81;15281668;19;20029;-81
2022/12/08 14:17:08;;;;;;;2.40;1.60;;;;;;;3.02;100.00;97357.97;15289665;19;20098;-81
2022/12/08 14:22:40;;;;;;;1.90;1.80;;;;;;;3.00;100.00;97359.94;15313471;19;20054;-80
2022/12/08 14:28:06;;;;;;;1.90;1.80;;;;;;;2.99;100.00;97352.97;15285681;19;20038;-81
2022/12/08 14:33:33;;;;;;;2.60;1.65;;;;;;;2.98;100.00;97361.94;15289149;19;20035;-82
2022/12/08 14:38:59;;;;;;;1.70;1.60;;;;;;;2.96;100.00;97358.56;15287388;19;20078;-81
2022/12/08 14:44:31;;;;;;;1.90;1.73;;;;;;;2.94;100.00;97355.19;15290351;19;20044;-82
2022/12/08 14:49:59;;;;;;;2.60;1.58;;;;;;;2.92;100.00;97365.13;15284124;19;20021;-80
2022/12/08 14:55:24;;;;;;;1.77;1.67;;;;;;;2.91;100.00;97366.09;15285417;19;20025;-81
2022/12/08 15:00:53;;;;;;;2.08;1.63;;;;;;;2.87;100.00;97372.69;15280019;19;20041;-80
2022/12/08 15:06:20;;;;;;;1.52;1.42;;;;;;;2.85;100.00;97366.66;15286103;19;20105;-81
2022/12/08 15:11:46;;;;;;;1.70;1.60;;;;;;;2.83;100.00;97373.94;15280781;19;20023;-81
2022/12/08 15:17:09;;;;;;;1.90;1.80;;;;;;;2.78;100.00;97375.19;15285191;19;20019;-81
2022/12/08 15:22:37;;;;;;;1.50;1.40;;;;;;;2.73;100.00;97380.09;15286154;19;20081;-82
2022/12/08 15:28:01;;;;;;;2.90;1.65;;;;;;;2.66;100.00;97381.59;15283435;19;20490;-82
2022/12/08 15:33:27;;;;;;;1.67;1.58;;;;;;;2.58;100.00;97381.47;15282373;19;20041;-82
2022/12/08 15:38:55;;;;;;;2.72;1.80;;;;;;;2.50;100.00;97379.47;15342242;19;20022;-81
2022/12/08 15:44:20;;;;;;;2.38;2.17;;;;;;;2.45;100.00;97387.88;15292213;19;20022;-81
2022/12/08 15:49:44;;;;;;;2.20;2.00;;;;;;;2.38;100.00;97389.41;15293315;19;20014;-82
2022/12/08 15:55:14;;;;;;;2.05;1.88;;;;;;;2.31;100.00;97397.06;15301605;19;20039;-81
2022/12/08 16:00:45;;;;;;;1.70;1.60;;;;;;;2.30;100.00;97386.53;15299733;19;20015;-80
2022/12/08 16:06:17;;;;;;;1.52;1.42;;;;;;;2.26;100.00;97393.13;15297703;19;20021;-80
2022/12/08 16:17:43;;;;;;;1.80;1.70;;;;;;;2.14;100.00;97387.06;15296538;19;20531;-82
2022/12/08 16:23:07;;;;;;;2.70;2.50;;;;;;;2.03;100.00;97393.31;15296184;19;20019;-81
2022/12/08 16:28:56;;;;;;;2.28;2.08;;;;;;;1.97;100.00;97388.50;15292575;19;20018;-81
2022/12/08 16:34:20;;;;;;;2.50;2.30;;;;;;;1.89;100.00;97397.13;15303481;19;20011;-80
2022/12/08 16:39:46;;;;;;;2.28;2.13;;;;;;;1.84;100.00;97397.53;15294893;19;20010;-80
2022/12/08 16:45:16;;;;;;;2.35;2.10;;;;;;;1.81;100.00;97403.13;15296055;19;20013;-81
2022/12/08 16:50:46;;;;;;;2.65;2.00;;;;;;;1.74;100.00;97404.63;15294467;19;20014;-81
2022/12/08 16:56:11;;;;;;;2.15;1.92;;;;;;;1.71;100.00;97399.56;15296910;19;20043;-81
2022/12/08 17:01:38;;;;;;;2.38;2.20;;;;;;;1.74;100.00;97406.44;15292688;19;20351;-80
2022/12/08 17:07:03;;;;;;;2.10;1.95;;;;;;;1.72;100.00;97400.41;15293283;19;20824;-82
2022/12/08 17:12:27;;;;;;;2.05;1.95;;;;;;;1.72;100.00;97401.25;15289439;19;20028;-81
2022/12/08 17:17:55;;;;;;;2.40;2.20;;;;;;;1.74;100.00;97406.44;15298700;19;20014;-79
2022/12/08 17:23:20;;;;;;;2.45;2.20;;;;;;;1.74;100.00;97409.94;15295234;19;20367;-83
2022/12/08 17:28:45;;;;;;;2.15;2.00;;;;;;;1.73;100.00;97410.91;15294589;19;20819;-82
2022/12/08 17:34:22;;;;;;;2.50;2.20;;;;;;;1.73;100.00;97402.09;15301540;19;20018;-83
2022/12/08 17:39:47;;;;;;;2.20;2.00;;;;;;;1.71;100.00;97399.56;15303430;19;20019;-81
2022/12/08 17:45:13;;;;;;;2.30;2.10;;;;;;;1.72;100.00;97411.88;15293208;19;20021;-81
2022/12/08 17:50:41;;;;;;;2.20;2.00;;;;;;;1.72;100.00;97411.88;15294747;19;20010;-84
2022/12/08 17:56:14;;;;;;;2.20;2.00;;;;;;;1.73;100.00;97413.53;15292582;19;20018;-81
2022/12/08 18:01:39;;;;;;;2.20;2.00;;;;;;;1.75;100.00;97411.59;15287517;19;20021;-82
2022/12/08 18:07:06;;;;;;;2.10;2.00;;;;;;;1.75;100.00;97411.59;15291586;19;20009;-81
2022/12/08 18:12:30;;;;;;;2.58;2.38;;;;;;;1.72;100.00;97411.88;15282644;19;20021;-83
2022/12/08 18:17:56;;;;;;;3.03;2.40;;;;;;;1.71;100.00;97415.50;15290760;19;20042;-81
2022/12/08 18:23:24;;;;;;;2.30;2.10;;;;;;;1.71;100.00;97420.78;15292068;19;20029;-83
2022/12/08 18:28:50;;;;;;;4.63;2.85;;;;;;;1.67;100.00;97419.41;15291484;19;20018;-83
2022/12/08 18:34:15;;;;;;;3.17;2.92;;;;;;;1.66;100.00;97415.06;15292399;19;20039;-83
2022/12/08 18:39:42;;;;;;;3.50;3.20;;;;;;;1.64;100.00;97422.31;15296394;19;20027;-83
2022/12/08 18:45:19;;;;;;;3.40;3.10;;;;;;;1.64;100.00;97430.25;15316082;19;20042;-81
2022/12/08 18:50:44;;;;;;;3.63;3.33;;;;;;;1.57;100.00;97419.31;15315898;19;20027;-80
2022/12/08 18:56:12;;;;;;;3.50;3.20;;;;;;;1.53;100.00;97418.75;15290085;19;20032;-81
2022/12/08 19:01:39;;;;;;;3.60;3.30;;;;;;;1.50;100.00;97419.00;15285049;19;20010;-82
2022/12/08 19:07:05;;;;;;;3.55;3.25;;;;;;;1.52;100.00;97427.69;15290211;19;20028;-82
2022/12/08 19:12:32;;;;;;;3.88;3.58;;;;;;;1.52;100.00;97427.69;15290555;19;20082;-82
2022/12/08 19:17:57;;;;;;;3.83;3.42;;;;;;;1.52;100.00;97430.31;15287396;19;20002;-83
2022/12/08 19:23:21;;;;;;;3.72;3.42;;;;;;;1.55;100.00;97431.88;15291495;19;20006;-80
2022/12/08 19:28:49;;;;;;;3.38;3.10;;;;;;;1.57;100.00;97434.41;15298793;19;20018;-80
2022/12/08 19:34:15;;;;;;;4.20;3.90;;;;;;;1.59;100.00;97433.31;15275282;19;20372;-79
2022/12/08 19:45:23;;;;;;;4.10;3.10;;;;;;;1.64;100.00;97440.88;15301379;19;20089;-81
2022/12/08 19:50:49;;;;;;;3.10;2.90;;;;;;;1.69;100.00;97438.69;15296703;19;20490;-81
2022/12/08 19:56:13;;;;;;;3.95;2.80;;;;;;;1.69;100.00;97438.69;15305450;19;20025;-81
2022/12/08 20:01:42;;;;;;;13.07;10.00;;;;;;;1.74;100.00;97438.31;15308423;19;20611;-80
2022/12/08 20:07:07;;;;;;;4.85;4.45;;;;;;;1.75;100.00;97445.31;15304285;19;20428;-80
2022/12/08 20:12:32;;;;;;;6.40;5.80;;;;;;;1.76;100.00;97434.53;15301132;19;20010;-80
2022/12/08 20:18:03;;;;;;;6.15;5.55;;;;;;;1.77;100.00;97433.56;15299194;19;20015;-80
2022/12/08 20:23:30;;;;;;;4.33;3.93;;;;;;;1.77;100.00;97436.22;15296231;19;20508;-81
2022/12/08 20:28:54;;;;;;;3.33;2.92;;;;;;;1.80;100.00;97435.13;15298184;19;20275;-80
2022/12/08 20:34:25;;;;;;;3.20;2.90;;;;;;;1.79;100.00;97450.22;15293158;19;20006;-80
2022/12/08 20:39:57;;;;;;;2.73;2.53;;;;;;;1.76;100.00;97450.47;15294069;19;20090;-79
2022/12/08 20:45:22;;;;;;;3.80;2.60;;;;;;;1.75;100.00;97451.44;15300105;19;20042;-79
2022/12/08 20:50:50;;;;;;;3.20;2.90;;;;;;;1.79;100.00;97460.84;15307685;19;20357;-81
2022/12/08 20:56:18;;;;;;;2.85;2.60;;;;;;;1.75;100.00;97454.09;15296469;19;20007;-80
2022/12/08 21:01:43;;;;;;;3.10;2.90;;;;;;;1.65;100.00;97464.63;15296396;19;20082;-79
2022/12/08 21:07:11;;;;;;;3.20;2.90;;;;;;;1.56;100.00;97475.22;15299276;19;20536;-80
2022/12/08 21:12:36;;;;;;;3.42;3.13;;;;;;;1.56;100.00;97477.84;15303793;19;20047;-80
2022/12/08 21:18:00;;;;;;;3.30;3.08;;;;;;;1.44;100.00;97480.56;15295946;19;20094;-80
2022/12/08 21:23:28;;;;;;;3.90;3.50;;;;;;;1.42;100.00;97493.13;15296564;19;20674;-79
2022/12/08 21:28:53;;;;;;;4.32;3.90;;;;;;;1.40;100.00;97494.22;15290981;19;20014;-81
2022/12/08 21:34:19;;;;;;;4.60;4.20;;;;;;;1.40;100.00;97499.53;15289323;19;20027;-80
2022/12/08 21:39:46;;;;;;;4.28;3.88;;;;;;;1.35;100.00;97498.09;15291973;19;20098;-80
2022/12/08 21:45:12;;;;;;;3.80;3.50;;;;;;;1.34;100.00;97503.53;15294166;19;20014;-81
2022/12/08 21:50:36;;;;;;;4.18;3.78;;;;;;;1.31;100.00;97503.78;15291505;19;20117;-81
2022/12/08 21:56:05;;;;;;;4.03;3.63;;;;;;;1.31;100.00;97499.28;15329559;19;19995;-78
2022/12/08 22:01:36;;;;;;;4.32;4.00;;;;;;;1.29;100.00;97503.03;15304581;19;20035;-81
2022/12/08 22:07:00;;;;;;;6.50;4.40;;;;;;;1.29;100.00;97500.41;15291002;19;20023;-80
2022/12/08 22:12:28;;;;;;;4.90;4.50;;;;;;;1.29;100.00;97505.69;15314185;19;20283;-81
2022/12/08 22:17:52;;;;;;;5.20;4.70;;;;;;;1.28;100.00;97501.34;15289058;19;20025;-79
2022/12/08 22:23:17;;;;;;;5.55;5.05;;;;;;;1.27;100.00;97494.38;15288203;19;20082;-81
2022/12/08 22:28:45;;;;;;;5.70;5.20;;;;;;;1.26;100.00;97495.34;15288433;19;20018;-82
2022/12/08 22:34:09;;;;;;;5.47;4.97;;;;;;;1.26;100.00;97500.63;15283565;19;20013;-79
2022/12/08 22:39:34;;;;;;;5.30;4.80;;;;;;;1.23;100.00;97491.94;15286254;19;20025;-80
2022/12/08 22:45:02;;;;;;;5.15;4.75;;;;;;;1.22;100.00;97503.56;15288063;19;20023;-81
2022/12/08 22:50:26;;;;;;;4.50;4.10;;;;;;;1.18;100.00;97493.31;15286347;19;20015;-81
2022/12/08 22:55:52;;;;;;;4.55;4.15;;;;;;;1.16;100.00;97501.41;15282527;19;20007;-82
2022/12/08 23:01:35;;;;;;;4.75;4.35;;;;;;;1.17;100.00;97504.91;15282997;19;20066;-81
2022/12/08 23:06:59;;;;;;;5.32;4.93;;;;;;;1.14;100.00;97518.41;15288027;19;20495;-81
2022/12/08 23:12:24;;;;;;;5.13;4.63;;;;;;;1.10;100.00;97506.34;15286838;19;20013;-80
2022/12/08 23:17:51;;;;;;;4.78;4.38;;;;;;;1.05;100.00;97504.06;15286980;19;20023;-80
2022/12/08 23:23:16;;;;;;;4.90;4.50;;;;;;;1.01;100.00;97507.94;15289374;19;20091;-80
2022/12/08 23:28:40;;;;;;;5.00;4.60;;;;;;;0.96;100.00;97512.78;15294142;19;20018;-80
2022/12/08 23:34:08;;;;;;;6.32;4.70;;;;;;;0.88;100.00;97511.56;15284832;19;20014;-80
2022/12/08 23:39:33;;;;;;;5.32;4.53;;;;;;;0.85;100.00;97514.47;15283418;19;20345;-81
2022/12/08 23:44:58;;;;;;;5.40;4.90;;;;;;;0.82;100.00;97511.25;15306574;19;20039;-81
2022/12/08 23:50:25;;;;;;;5.40;4.93;;;;;;;0.77;100.00;97501.84;15298115;19;20074;-80
2022/12/08 23:55:51;;;;;;;5.10;4.70;;;;;;;0.74;100.00;97502.06;15299087;19;20015;-80
